Time;durP1;ratioP1;P1;durP2;ratioP2;P2;SDS_P1;SDS_P2;PMS_P1;PMS_P2;Temp;Humidity;BMP_temperature;BMP_pressure;BME280_temperature;BME280_humidity;BME280_pressure;Samples;Min_cycle;Max_cycle;Signal;HPM_P1;HPM_P2
2022/08/12 00:43:28;;;;;;;8.25;5.20;;;;;;;;;;5029113;28;20099;-66
2022/08/12 00:48:40;;;;;;;7.30;5.25;;;;;;;;;;5013229;28;20088;-66
2022/08/12 00:51:07;;;;;;;7.50;5.20;;;;;;;;;;5020247;28;20113;-66
2022/08/12 00:53:32;;;;;;;8.55;4.82;;;;;;;;;;5028465;28;20034;-66
2022/08/12 00:55:59;;;;;;;7.90;5.20;;;;;;;;;;5029110;28;20426;-66
2022/08/12 00:58:27;;;;;;;6.25;4.93;;;;;;;;;;5042943;28;20063;-66
2022/08/12 01:01:03;;;;;;;7.10;5.28;;;;;;;;;;5038318;28;20044;-66
2022/08/12 01:11:27;;;;;;;7.05;4.90;;;;;;;;;;5027902;28;20033;-66
2022/08/12 01:11:50;;;;;;;7.10;4.78;;;;;;;;;;5030960;28;20584;-66
2022/08/12 01:14:18;;;;;;;6.60;5.07;;;;;;;;;;5039285;28;20029;-66
2022/08/12 01:16:46;;;;;;;6.43;4.88;;;;;;;;;;5028590;28;20014;-66
2022/08/12 01:19:12;;;;;;;9.18;4.88;;;;;;;;;;5027018;28;20025;-66
2022/08/12 01:22:03;;;;;;;8.82;5.10;;;;;;;;;;5012305;28;20034;-66
2022/08/12 01:24:37;;;;;;;9.02;5.88;;;;;;;;;;5024843;28;20037;-66
2022/08/12 01:27:06;;;;;;;6.45;4.78;;;;;;;;;;5027896;28;20052;-66
2022/08/12 01:29:33;;;;;;;8.82;5.70;;;;;;;;;;5007853;28;20037;-66
2022/08/12 01:32:07;;;;;;;7.28;5.60;;;;;;;;;;5009431;28;20029;-65
2022/08/12 01:34:37;;;;;;;7.70;5.65;;;;;;;;;;5017642;28;20038;-66
2022/08/12 01:37:04;;;;;;;9.57;6.20;;;;;;;;;;5024731;28;20038;-66
2022/08/12 01:39:36;;;;;;;6.70;5.00;;;;;;;;;;5027889;28;20125;-66
2022/08/12 01:42:06;;;;;;;10.15;5.63;;;;;;;;;;5027912;28;20036;-66
2022/08/12 01:44:33;;;;;;;8.88;6.13;;;;;;;;;;5033596;28;20069;-66
2022/08/12 01:47:32;;;;;;;7.50;5.25;;;;;;;;;;5022097;28;20595;-66
2022/08/12 01:50:49;;;;;;;10.02;5.68;;;;;;;;;;5008961;28;20041;-66
2022/08/12 01:53:19;;;;;;;10.13;6.13;;;;;;;;;;5004840;28;20128;-66
2022/08/12 01:55:46;;;;;;;11.07;6.00;;;;;;;;;;5005928;28;20042;-66
2022/08/12 01:58:24;;;;;;;7.85;5.78;;;;;;;;;;5018451;28;20026;-66
2022/08/12 02:00:58;;;;;;;8.60;5.63;;;;;;;;;;5027638;28;20103;-66
2022/08/12 02:03:24;;;;;;;9.15;6.30;;;;;;;;;;5027808;28;20037;-66
2022/08/12 02:12:07;;;;;;;9.50;6.18;;;;;;;;;;5028996;28;20040;-65
2022/08/12 02:15:05;;;;;;;7.63;5.95;;;;;;;;;;5050272;28;20029;-66
2022/08/12 02:17:42;;;;;;;7.05;5.28;;;;;;;;;;5046459;28;20059;-66
2022/08/12 02:20:37;;;;;;;8.40;6.05;;;;;;;;;;5039110;28;20411;-66
2022/08/12 02:23:06;;;;;;;8.95;6.10;;;;;;;;;;5031703;28;20024;-65
2022/08/12 02:25:35;;;;;;;7.38;5.72;;;;;;;;;;5031747;28;20025;-66
2022/08/12 02:28:01;;;;;;;8.98;5.90;;;;;;;;;;5015646;28;20049;-66
2022/08/12 02:30:30;;;;;;;9.93;6.25;;;;;;;;;;5012025;28;20083;-66
2022/08/12 02:32:56;;;;;;;10.35;6.35;;;;;;;;;;5029441;28;20383;-66
2022/08/12 02:35:24;;;;;;;8.77;5.78;;;;;;;;;;5031582;28;20037;-65
2022/08/12 02:37:52;;;;;;;6.55;5.40;;;;;;;;;;5031737;28;20101;-66
2022/08/12 02:40:19;;;;;;;9.02;5.63;;;;;;;;;;5031695;28;20029;-66
2022/08/12 02:42:53;;;;;;;8.70;6.20;;;;;;;;;;5015613;28;20034;-66
2022/08/12 02:45:24;;;;;;;8.80;6.22;;;;;;;;;;5018185;28;20042;-66
2022/08/12 02:47:53;;;;;;;9.40;6.35;;;;;;;;;;5024375;28;20063;-66
2022/08/12 02:50:21;;;;;;;8.38;5.63;;;;;;;;;;5031657;28;20029;-66
2022/08/12 02:52:48;;;;;;;8.93;6.43;;;;;;;;;;5030243;28;20014;-66
2022/08/12 02:55:18;;;;;;;10.30;6.43;;;;;;;;;;5030942;28;20057;-66
2022/08/12 02:57:45;;;;;;;8.25;6.25;;;;;;;;;;5033433;28;20030;-65
2022/08/12 03:00:12;;;;;;;8.45;6.57;;;;;;;;;;5012619;28;20045;-66
2022/08/12 03:02:42;;;;;;;10.00;5.85;;;;;;;;;;5030917;28;20410;-66
2022/08/12 03:05:11;;;;;;;10.38;5.97;;;;;;;;;;5031182;28;20021;-66
2022/08/12 03:07:48;;;;;;;8.35;6.28;;;;;;;;;;5031332;28;20030;-65
2022/08/12 03:10:17;;;;;;;10.45;6.13;;;;;;;;;;5037132;28;20029;-65
2022/08/12 03:12:44;;;;;;;10.07;6.97;;;;;;;;;;5032227;28;20037;-66
2022/08/12 03:15:16;;;;;;;11.98;6.47;;;;;;;;;;5029927;28;20134;-66
2022/08/12 03:17:50;;;;;;;9.70;6.30;;;;;;;;;;5010928;28;20034;-66
2022/08/12 03:20:19;;;;;;;9.52;5.95;;;;;;;;;;5023429;28;20036;-65
2022/08/12 03:22:45;;;;;;;10.73;6.30;;;;;;;;;;5031162;28;20025;-66
2022/08/12 03:25:26;;;;;;;11.50;6.80;;;;;;;;;;5029214;28;20040;-66
2022/08/12 03:27:56;;;;;;;11.57;6.72;;;;;;;;;;5030643;28;20045;-65
2022/08/12 03:30:30;;;;;;;10.95;6.80;;;;;;;;;;5030637;28;20045;-66
2022/08/12 03:32:57;;;;;;;11.13;6.88;;;;;;;;;;5014015;28;20041;-66
2022/08/12 03:35:27;;;;;;;12.57;7.25;;;;;;;;;;5023524;28;20043;-65
2022/08/12 03:37:55;;;;;;;12.60;8.30;;;;;;;;;;5031196;28;20095;-66
2022/08/12 04:02:24;;;;;;;9.90;6.03;;;;;;;;;;5017716;28;20052;-65
2022/08/12 04:04:50;;;;;;;11.43;6.75;;;;;;;;;;5010877;28;20080;-65
2022/08/12 04:07:15;;;;;;;8.63;6.10;;;;;;;;;;5022437;28;20679;-65
2022/08/12 04:09:42;;;;;;;10.75;6.70;;;;;;;;;;5030034;28;20044;-66
2022/08/12 04:14:57;;;;;;;10.95;7.00;;;;;;;;;;5014320;28;20047;-65
2022/08/12 04:17:23;;;;;;;11.48;6.32;;;;;;;;;;5009933;28;20046;-66
2022/08/12 04:19:49;;;;;;;11.50;7.38;;;;;;;;;;5019092;28;20024;-66
2022/08/12 04:22:15;;;;;;;15.65;7.20;;;;;;;;;;5023980;28;20068;-66
2022/08/12 04:24:43;;;;;;;12.95;7.10;;;;;;;;;;5020665;28;20058;-65
2022/08/12 04:27:10;;;;;;;11.13;6.97;;;;;;;;;;5048486;28;20557;-66
2022/08/12 04:29:37;;;;;;;11.38;6.68;;;;;;;;;;5028180;28;20029;-66
2022/08/12 04:32:05;;;;;;;10.40;6.57;;;;;;;;;;5023826;28;20021;-65
2022/08/12 04:34:31;;;;;;;13.00;7.55;;;;;;;;;;5009803;28;20048;-66
2022/08/12 04:36:56;;;;;;;13.70;7.68;;;;;;;;;;5022106;28;20411;-65
2022/08/12 04:39:23;;;;;;;9.88;7.30;;;;;;;;;;5019529;28;20049;-65
2022/08/12 04:41:49;;;;;;;9.82;7.18;;;;;;;;;;5028989;28;20076;-66
2022/08/12 04:44:14;;;;;;;10.27;7.43;;;;;;;;;;5028844;28;20065;-65
2022/08/12 04:46:40;;;;;;;10.05;7.00;;;;;;;;;;5029168;28;20021;-65
2022/08/12 04:49:06;;;;;;;10.65;6.95;;;;;;;;;;5025510;28;20048;-65
2022/08/12 04:51:33;;;;;;;14.95;6.88;;;;;;;;;;5034227;28;20246;-66
2022/08/12 04:54:00;;;;;;;11.15;6.57;;;;;;;;;;5028103;28;20033;-66
2022/08/12 04:56:27;;;;;;;10.98;6.88;;;;;;;;;;5008907;28;20116;-65
2022/08/12 04:58:54;;;;;;;12.95;6.85;;;;;;;;;;5031795;28;20017;-65
2022/08/12 05:01:19;;;;;;;9.80;6.72;;;;;;;;;;5027977;28;20037;-66
2022/08/12 05:03:45;;;;;;;9.70;6.90;;;;;;;;;;5021080;28;20065;-66
2022/08/12 05:06:11;;;;;;;11.88;7.50;;;;;;;;;;5016194;28;20129;-65
2022/08/12 05:08:36;;;;;;;10.55;6.15;;;;;;;;;;5027607;28;20029;-66
2022/08/12 05:11:05;;;;;;;13.20;6.90;;;;;;;;;;5023684;28;20010;-65
2022/08/12 05:13:36;;;;;;;9.20;6.53;;;;;;;;;;5008972;28;20046;-66
2022/08/12 05:16:03;;;;;;;10.75;6.63;;;;;;;;;;5008857;28;20096;-65
2022/08/12 05:18:28;;;;;;;9.68;7.00;;;;;;;;;;5023660;28;20041;-66
2022/08/12 05:20:53;;;;;;;10.80;6.80;;;;;;;;;;5026753;28;20037;-66
2022/08/12 05:23:21;;;;;;;16.65;7.20;;;;;;;;;;5028483;28;20029;-65
2022/08/12 05:25:49;;;;;;;14.35;7.07;;;;;;;;;;5018367;28;20069;-65
2022/08/12 05:28:15;;;;;;;11.40;7.40;;;;;;;;;;5027870;28;20045;-65
2022/08/12 05:30:42;;;;;;;12.75;7.20;;;;;;;;;;5014291;28;20534;-65
2022/08/12 05:33:08;;;;;;;11.02;6.70;;;;;;;;;;5014464;28;20053;-66
2022/08/12 05:35:40;;;;;;;11.40;6.93;;;;;;;;;;5017119;28;20045;-66
2022/08/12 05:40:55;;;;;;;13.23;7.47;;;;;;;;;;5025309;28;20530;-66
2022/08/12 05:43:20;;;;;;;12.30;7.65;;;;;;;;;;5028052;28;20562;-66
2022/08/12 05:45:46;;;;;;;15.55;6.85;;;;;;;;;;5027865;28;20515;-65
2022/08/12 05:48:13;;;;;;;10.68;6.72;;;;;;;;;;5012650;28;20052;-66
2022/08/12 05:50:39;;;;;;;13.02;7.88;;;;;;;;;;5007870;28;20038;-66
2022/08/12 05:53:05;;;;;;;9.63;6.68;;;;;;;;;;5008199;28;20046;-65
2022/08/12 05:55:31;;;;;;;12.80;7.80;;;;;;;;;;5008558;28;20070;-66
2022/08/12 05:57:57;;;;;;;12.02;6.90;;;;;;;;;;5029016;28;20485;-66
2022/08/12 06:00:24;;;;;;;11.30;6.13;;;;;;;;;;5043597;28;20032;-66
2022/08/12 06:02:59;;;;;;;13.55;6.25;;;;;;;;;;5023396;28;20041;-66
2022/08/12 06:05:36;;;;;;;12.45;7.28;;;;;;;;;;5024646;28;20507;-66
2022/08/12 06:08:06;;;;;;;9.40;6.22;;;;;;;;;;5028864;28;20030;-66
2022/08/12 06:10:33;;;;;;;13.95;7.25;;;;;;;;;;5026287;28;20037;-64
2022/08/12 06:13:01;;;;;;;11.55;6.38;;;;;;;;;;5023924;28;20028;-64
2022/08/12 06:15:27;;;;;;;11.52;6.72;;;;;;;;;;5009177;28;20044;-64
2022/08/12 06:17:53;;;;;;;10.77;6.78;;;;;;;;;;5006098;28;20124;-66
2022/08/12 06:20:18;;;;;;;11.77;6.10;;;;;;;;;;5020538;28;20151;-66
2022/08/12 06:22:46;;;;;;;9.90;6.47;;;;;;;;;;5027569;28;20032;-66
2022/08/12 06:25:12;;;;;;;11.15;6.50;;;;;;;;;;5027826;28;20118;-65
2022/08/12 06:27:48;;;;;;;10.55;6.65;;;;;;;;;;5012345;28;20038;-66
2022/08/12 06:30:15;;;;;;;10.93;6.90;;;;;;;;;;5027776;28;20700;-66
2022/08/12 06:32:43;;;;;;;11.52;6.57;;;;;;;;;;5017343;28;20038;-66
2022/08/12 06:35:10;;;;;;;11.00;6.28;;;;;;;;;;5029486;28;20032;-68
2022/08/12 06:37:44;;;;;;;11.52;7.53;;;;;;;;;;5039753;28;20029;-67
2022/08/12 06:40:11;;;;;;;10.95;6.93;;;;;;;;;;5029005;28;20033;-68
2022/08/12 06:42:52;;;;;;;10.95;7.13;;;;;;;;;;5027521;28;20038;-68
2022/08/12 06:45:18;;;;;;;9.30;6.63;;;;;;;;;;5009957;28;20519;-68
2022/08/12 06:47:44;;;;;;;13.00;8.30;;;;;;;;;;5035027;28;20044;-68
2022/08/12 06:50:15;;;;;;;12.40;6.78;;;;;;;;;;5011913;28;20284;-67
2022/08/12 06:52:46;;;;;;;12.00;7.15;;;;;;;;;;5019087;28;20551;-68
2022/08/12 06:55:14;;;;;;;11.10;6.60;;;;;;;;;;5027244;28;20088;-68
2022/08/12 06:57:54;;;;;;;10.18;6.60;;;;;;;;;;5034793;28;20037;-68
2022/08/12 07:00:21;;;;;;;10.60;6.53;;;;;;;;;;5043443;28;20410;-68
2022/08/12 07:02:47;;;;;;;9.20;6.55;;;;;;;;;;5030674;28;20102;-68
2022/08/12 07:05:12;;;;;;;12.18;6.13;;;;;;;;;;5029151;28;20696;-68
2022/08/12 07:07:38;;;;;;;12.60;5.72;;;;;;;;;;5027390;28;20025;-68
2022/08/12 07:10:03;;;;;;;9.80;6.40;;;;;;;;;;5030596;28;20030;-68
2022/08/12 07:12:29;;;;;;;12.48;6.90;;;;;;;;;;5021009;28;20046;-68
2022/08/12 07:15:00;;;;;;;9.25;6.15;;;;;;;;;;5015478;28;20602;-68
2022/08/12 07:17:35;;;;;;;9.27;6.78;;;;;;;;;;5022813;28;20061;-69
2022/08/12 07:20:01;;;;;;;11.05;6.57;;;;;;;;;;5028360;28;20134;-68
2022/08/12 07:22:27;;;;;;;12.18;6.03;;;;;;;;;;5021953;28;20129;-69
2022/08/12 07:25:29;;;;;;;9.68;5.68;;;;;;;;;;5023413;28;20030;-67
2022/08/12 07:27:39;;;;;;;9.07;6.20;;;;;;;;;;5027007;28;20514;-68
2022/08/12 07:30:06;;;;;;;8.02;6.32;;;;;;;;;;5027108;28;20091;-68
2022/08/12 07:32:32;;;;;;;9.85;6.70;;;;;;;;;;5018626;28;20045;-68
2022/08/12 07:34:57;;;;;;;10.05;6.70;;;;;;;;;;5026708;28;21120;-68
2022/08/12 07:37:22;;;;;;;11.43;6.63;;;;;;;;;;5015857;28;20120;-68
2022/08/12 07:39:49;;;;;;;8.57;5.85;;;;;;;;;;5020906;28;20033;-68
2022/08/12 07:42:14;;;;;;;11.05;6.70;;;;;;;;;;5033449;28;20030;-68
2022/08/12 07:44:40;;;;;;;7.80;5.82;;;;;;;;;;5025072;28;20041;-68
2022/08/12 07:47:06;;;;;;;8.48;6.00;;;;;;;;;;5017171;28;20032;-67
2022/08/12 07:49:32;;;;;;;10.30;5.90;;;;;;;;;;5019425;28;20413;-68
2022/08/12 07:51:59;;;;;;;12.77;6.28;;;;;;;;;;5026777;28;20037;-68
2022/08/12 07:54:24;;;;;;;11.38;6.13;;;;;;;;;;5026331;28;20040;-68
2022/08/12 07:56:50;;;;;;;7.47;5.40;;;;;;;;;;5025084;28;20033;-68
2022/08/12 07:59:15;;;;;;;7.93;5.22;;;;;;;;;;5027788;28;20034;-69
2022/08/12 08:01:41;;;;;;;10.32;5.95;;;;;;;;;;5024916;28;20025;-68
2022/08/12 08:06:51;;;;;;;9.50;5.82;;;;;;;;;;5026810;28;20140;-68
2022/08/12 08:09:20;;;;;;;10.63;5.82;;;;;;;;;;5022282;28;20572;-67
2022/08/12 08:14:30;;;;;;;7.07;5.75;;;;;;;;;;5024145;28;20506;-68
2022/08/12 08:16:57;;;;;;;10.80;5.57;;;;;;;;;;5023205;28;20037;-68
2022/08/12 08:19:22;;;;;;;11.00;5.93;;;;;;;;;;5015663;28;20033;-67
2022/08/12 08:21:54;;;;;;;10.88;5.20;;;;;;;;;;5022018;28;20577;-68
2022/08/12 08:24:23;;;;;;;7.28;5.43;;;;;;;;;;5025487;28;20045;-68
2022/08/12 08:26:51;;;;;;;8.13;5.05;;;;;;;;;;5017606;28;20123;-68
2022/08/12 08:29:17;;;;;;;9.20;5.28;;;;;;;;;;5029454;28;20029;-68
2022/08/12 08:31:45;;;;;;;7.97;5.40;;;;;;;;;;5021817;28;20021;-68
2022/08/12 08:34:16;;;;;;;7.10;5.45;;;;;;;;;;5021745;28;20084;-68
2022/08/12 08:36:42;;;;;;;6.30;4.93;;;;;;;;;;5025271;28;20403;-68
2022/08/12 08:39:09;;;;;;;8.35;4.95;;;;;;;;;;5023618;28;20065;-68
2022/08/12 08:44:19;;;;;;;8.95;5.40;;;;;;;;;;5026303;28;20080;-68
2022/08/12 08:46:45;;;;;;;8.50;4.68;;;;;;;;;;5023629;28;20772;-68
2022/08/12 08:49:11;;;;;;;14.18;5.40;;;;;;;;;;5017054;28;20112;-68
2022/08/12 08:51:37;;;;;;;5.18;4.20;;;;;;;;;;5020247;28;20180;-68
2022/08/12 08:54:05;;;;;;;6.22;4.90;;;;;;;;;;5022980;28;20049;-68
2022/08/12 08:56:31;;;;;;;7.15;4.72;;;;;;;;;;5020558;28;20116;-68
2022/08/12 08:58:57;;;;;;;8.05;4.63;;;;;;;;;;5023055;28;20025;-68
2022/08/12 09:01:23;;;;;;;8.70;4.70;;;;;;;;;;5024417;28;20037;-68
2022/08/12 09:03:48;;;;;;;5.97;4.90;;;;;;;;;;5025170;28;20025;-68
2022/08/12 09:06:14;;;;;;;6.20;4.45;;;;;;;;;;5019545;28;20029;-68
2022/08/12 09:08:43;;;;;;;6.18;4.57;;;;;;;;;;5014424;28;20033;-68
2022/08/12 09:14:06;;;;;;;7.50;4.57;;;;;;;;;;5040864;28;20068;-67
2022/08/12 09:16:32;;;;;;;6.70;4.68;;;;;;;;;;5023277;28;20029;-68
2022/08/12 09:18:58;;;;;;;7.85;4.57;;;;;;;;;;5024613;28;20044;-69
2022/08/12 09:21:23;;;;;;;5.53;4.30;;;;;;;;;;5021723;28;20068;-68
2022/08/12 09:23:49;;;;;;;8.95;4.90;;;;;;;;;;5029108;28;20611;-68
2022/08/12 09:26:17;;;;;;;9.88;4.90;;;;;;;;;;5040242;28;20033;-68
2022/08/12 09:28:46;;;;;;;15.48;4.57;;;;;;;;;;5028627;28;20101;-69
2022/08/12 09:31:11;;;;;;;12.00;4.80;;;;;;;;;;5027051;28;20032;-68
2022/08/12 09:33:37;;;;;;;7.32;4.57;;;;;;;;;;5022384;28;20509;-69
2022/08/12 09:36:03;;;;;;;6.75;4.80;;;;;;;;;;5016753;28;20025;-68
2022/08/12 09:38:29;;;;;;;5.22;4.30;;;;;;;;;;5026635;28;20641;-72
2022/08/12 09:40:56;;;;;;;6.40;4.30;;;;;;;;;;5027588;28;20028;-71
2022/08/12 09:46:06;;;;;;;5.32;4.03;;;;;;;;;;5023189;28;20041;-71
2022/08/12 09:48:32;;;;;;;5.13;4.30;;;;;;;;;;5011211;28;20041;-71
2022/08/12 09:50:58;;;;;;;6.38;4.32;;;;;;;;;;5011670;28;20741;-71
2022/08/12 09:53:24;;;;;;;5.47;4.35;;;;;;;;;;5016781;28;20094;-71
2022/08/12 09:55:55;;;;;;;6.60;3.60;;;;;;;;;;5012880;28;20130;-71
2022/08/12 09:58:27;;;;;;;4.28;3.60;;;;;;;;;;5027344;28;20063;-71
2022/08/12 10:01:00;;;;;;;7.25;4.07;;;;;;;;;;5023940;28;20044;-70
2022/08/12 10:03:30;;;;;;;6.32;4.28;;;;;;;;;;5026845;28;20026;-70
2022/08/12 10:05:56;;;;;;;6.10;3.90;;;;;;;;;;5047292;28;20036;-70
2022/08/12 10:08:26;;;;;;;6.15;4.10;;;;;;;;;;5037484;28;20018;-70
2022/08/12 10:13:40;;;;;;;7.55;4.05;;;;;;;;;;5017903;28;20032;-70
2022/08/12 10:16:19;;;;;;;4.00;3.60;;;;;;;;;;5022507;28;20029;-71
2022/08/12 10:18:44;;;;;;;4.93;3.88;;;;;;;;;;5022202;28;20033;-70
2022/08/12 10:21:13;;;;;;;5.57;4.00;;;;;;;;;;5021140;28;20052;-70
2022/08/12 10:23:40;;;;;;;4.32;3.92;;;;;;;;;;5021550;28;20041;-70
2022/08/12 10:31:38;;;;;;;9.32;4.30;;;;;;;;;;5017663;28;20525;-70
2022/08/12 10:34:04;;;;;;;8.18;4.38;;;;;;;;;;5021945;28;20098;-70
2022/08/12 10:36:33;;;;;;;6.60;4.47;;;;;;;;;;5015968;28;20037;-71
2022/08/12 10:38:58;;;;;;;5.50;3.88;;;;;;;;;;5023329;28;20037;-71
2022/08/12 10:44:11;;;;;;;4.88;3.83;;;;;;;;;;5024697;28;20095;-70
2022/08/12 10:46:37;;;;;;;5.82;4.00;;;;;;;;;;5021457;28;20056;-72
2022/08/12 10:49:02;;;;;;;6.18;3.90;;;;;;;;;;5025072;28;20110;-70
2022/08/12 10:51:29;;;;;;;5.45;4.43;;;;;;;;;;5022129;28;20041;-70
2022/08/12 10:53:55;;;;;;;4.50;4.00;;;;;;;;;;5023203;28;20517;-71
2022/08/12 10:56:21;;;;;;;4.47;3.80;;;;;;;;;;5023631;28;20072;-71
2022/08/12 10:58:47;;;;;;;4.53;3.92;;;;;;;;;;5023855;28;20026;-71
2022/08/12 11:01:14;;;;;;;5.38;4.03;;;;;;;;;;5019140;28;20042;-71
2022/08/12 11:03:40;;;;;;;4.82;4.00;;;;;;;;;;5010237;28;20507;-71
2022/08/12 11:06:07;;;;;;;4.72;4.00;;;;;;;;;;5028270;28;20462;-67
2022/08/12 11:08:36;;;;;;;10.05;4.30;;;;;;;;;;5024037;28;20045;-67
2022/08/12 11:11:08;;;;;;;4.20;3.80;;;;;;;;;;5033440;28;20031;-67
2022/08/12 11:13:35;;;;;;;4.68;3.72;;;;;;;;;;5037554;28;20037;-67
2022/08/12 11:16:00;;;;;;;4.45;4.03;;;;;;;;;;5028458;28;20030;-67
2022/08/12 11:18:27;;;;;;;5.40;3.80;;;;;;;;;;5028564;28;20501;-67
2022/08/12 11:20:53;;;;;;;5.30;3.90;;;;;;;;;;5029507;28;20057;-67
2022/08/12 11:23:19;;;;;;;5.97;3.50;;;;;;;;;;5029024;28;20017;-67
2022/08/12 11:25:45;;;;;;;5.15;4.00;;;;;;;;;;5029832;28;20033;-67
2022/08/12 11:28:11;;;;;;;4.57;3.58;;;;;;;;;;5029288;28;20111;-67
2022/08/12 11:30:36;;;;;;;6.80;3.97;;;;;;;;;;5029661;28;20107;-67
2022/08/12 11:33:01;;;;;;;7.50;3.97;;;;;;;;;;5018315;28;20038;-67
2022/08/12 11:35:27;;;;;;;4.00;3.58;;;;;;;;;;5009322;28;20085;-67
2022/08/12 11:37:53;;;;;;;6.50;3.97;;;;;;;;;;5009765;28;20018;-67
2022/08/12 11:40:18;;;;;;;5.82;3.95;;;;;;;;;;5016885;28;20064;-67
2022/08/12 11:42:43;;;;;;;7.53;4.05;;;;;;;;;;5025446;28;20049;-67
2022/08/12 11:45:10;;;;;;;5.18;4.03;;;;;;;;;;5027751;28;20041;-67
2022/08/12 11:47:35;;;;;;;6.18;3.67;;;;;;;;;;5028032;28;20042;-67
2022/08/12 11:50:01;;;;;;;5.95;3.67;;;;;;;;;;5029522;28;20018;-67
2022/08/12 11:52:26;;;;;;;6.32;3.80;;;;;;;;;;5027942;28;20037;-67
2022/08/12 11:54:51;;;;;;;5.75;4.00;;;;;;;;;;5023467;28;20054;-68
2022/08/12 11:57:17;;;;;;;5.13;3.50;;;;;;;;;;5020402;28;20041;-68
2022/08/12 11:59:42;;;;;;;4.65;3.75;;;;;;;;;;5022232;28;20159;-67
2022/08/12 12:02:07;;;;;;;6.07;3.80;;;;;;;;;;5023855;28;20106;-67
2022/08/12 12:04:33;;;;;;;5.03;4.13;;;;;;;;;;5022098;28;21092;-68
2022/08/12 12:06:58;;;;;;;7.28;3.75;;;;;;;;;;5022435;28;20056;-67
2022/08/12 12:09:24;;;;;;;5.78;4.05;;;;;;;;;;5028932;28;20034;-67
2022/08/12 12:11:49;;;;;;;5.95;3.70;;;;;;;;;;5031440;28;20037;-67
2022/08/12 12:14:15;;;;;;;5.45;4.03;;;;;;;;;;5028804;28;20036;-67
2022/08/12 12:16:40;;;;;;;4.15;3.75;;;;;;;;;;5026193;28;20036;-68
2022/08/12 12:19:07;;;;;;;4.20;3.70;;;;;;;;;;5027541;28;20111;-68
2022/08/12 12:21:32;;;;;;;5.13;3.53;;;;;;;;;;5026523;28;20026;-68
2022/08/12 12:23:58;;;;;;;6.38;4.00;;;;;;;;;;5028500;28;20044;-68
2022/08/12 12:26:23;;;;;;;5.32;3.90;;;;;;;;;;5028539;28;20037;-68
2022/08/12 12:28:49;;;;;;;5.20;3.88;;;;;;;;;;5025436;28;20025;-68
2022/08/12 12:31:14;;;;;;;4.85;3.65;;;;;;;;;;5019870;28;20044;-68
2022/08/12 12:33:39;;;;;;;6.03;3.75;;;;;;;;;;5012610;28;20051;-68
2022/08/12 12:36:06;;;;;;;6.15;3.95;;;;;;;;;;5018728;28;20239;-68
2022/08/12 12:38:32;;;;;;;4.90;4.00;;;;;;;;;;5019108;28;20063;-68
2022/08/12 12:40:58;;;;;;;6.28;4.00;;;;;;;;;;5023162;28;20042;-67
2022/08/12 12:43:23;;;;;;;5.80;4.50;;;;;;;;;;5018439;28;20037;-67
2022/08/12 12:45:52;;;;;;;4.15;3.20;;;;;;;;;;5026420;28;20960;-67
2022/08/12 12:48:19;;;;;;;7.18;3.67;;;;;;;;;;5023850;28;20147;-66
2022/08/12 12:51:31;;;;;;;4.85;3.78;;;;;;;;;;5026840;28;20606;-67
2022/08/12 12:53:45;;;;;;;4.73;3.60;;;;;;;;;;5023450;28;20045;-66
2022/08/12 12:56:19;;;;;;;4.13;3.55;;;;;;;;;;5020928;28;20785;-66
2022/08/12 12:58:48;;;;;;;4.38;3.97;;;;;;;;;;5021911;28;20888;-67
2022/08/12 13:01:15;;;;;;;5.55;4.00;;;;;;;;;;5015939;28;20073;-65
2022/08/12 13:03:40;;;;;;;5.15;4.00;;;;;;;;;;5006169;28;20080;-67
2022/08/12 13:06:07;;;;;;;5.25;3.83;;;;;;;;;;5003715;28;20033;-66
2022/08/12 13:08:32;;;;;;;9.05;4.25;;;;;;;;;;5013690;28;20139;-66
2022/08/12 13:11:02;;;;;;;4.43;3.40;;;;;;;;;;5041221;28;20100;-66
2022/08/12 13:13:30;;;;;;;4.95;3.40;;;;;;;;;;5020386;28;20045;-65
2022/08/12 13:16:00;;;;;;;7.13;4.00;;;;;;;;;;5021303;28;20088;-66
2022/08/12 13:18:35;;;;;;;4.28;3.50;;;;;;;;;;5025111;28;20065;-66
2022/08/12 13:21:08;;;;;;;4.75;3.38;;;;;;;;;;5026727;28;20041;-66
2022/08/12 13:23:34;;;;;;;3.45;3.13;;;;;;;;;;5023704;28;20044;-66
2022/08/12 13:26:02;;;;;;;5.97;3.38;;;;;;;;;;5025445;28;20168;-66
2022/08/12 13:28:29;;;;;;;8.35;3.47;;;;;;;;;;5027738;28;20076;-66
2022/08/12 13:30:56;;;;;;;7.43;3.70;;;;;;;;;;5023984;28;20034;-66
2022/08/12 13:33:26;;;;;;;3.70;3.40;;;;;;;;;;5023792;28;20116;-66
2022/08/12 13:36:02;;;;;;;4.40;3.25;;;;;;;;;;5025413;28;20541;-66
2022/08/12 13:38:45;;;;;;;3.40;3.05;;;;;;;;;;5025398;28;20111;-66
2022/08/12 13:41:31;;;;;;;3.30;3.00;;;;;;;;;;5025976;28;20033;-66
2022/08/12 13:43:58;;;;;;;4.22;3.33;;;;;;;;;;5026183;28;20026;-66
2022/08/12 13:46:24;;;;;;;7.63;3.50;;;;;;;;;;5024241;28;20052;-66
2022/08/12 13:48:49;;;;;;;8.00;3.10;;;;;;;;;;5024436;28;20041;-66
2022/08/12 13:51:15;;;;;;;3.70;3.30;;;;;;;;;;5022553;28;20038;-66
2022/08/12 13:53:40;;;;;;;6.13;3.70;;;;;;;;;;5015215;28;20526;-66
2022/08/12 13:56:05;;;;;;;4.60;3.33;;;;;;;;;;5019862;28;20073;-66
2022/08/12 13:58:31;;;;;;;4.90;3.38;;;;;;;;;;5041178;28;20047;-66
2022/08/12 14:00:57;;;;;;;3.22;2.92;;;;;;;;;;5037515;28;20037;-66
2022/08/12 14:03:23;;;;;;;7.13;3.25;;;;;;;;;;5026087;28;20083;-66
2022/08/12 14:05:49;;;;;;;3.10;2.85;;;;;;;;;;5025697;28;20033;-66
2022/08/12 14:08:15;;;;;;;5.32;3.45;;;;;;;;;;5025786;28;20026;-67
2022/08/12 14:10:52;;;;;;;5.30;3.67;;;;;;;;;;5032564;28;20575;-66
2022/08/12 14:13:19;;;;;;;5.38;3.60;;;;;;;;;;5028280;28;20042;-66
2022/08/12 14:15:47;;;;;;;4.45;3.60;;;;;;;;;;5032221;28;20037;-66
2022/08/12 14:18:21;;;;;;;4.78;3.45;;;;;;;;;;5031865;28;20084;-66
2022/08/12 14:20:57;;;;;;;5.18;3.58;;;;;;;;;;5031904;28;20037;-65
2022/08/12 14:23:24;;;;;;;8.13;4.00;;;;;;;;;;5032594;28;20041;-66
2022/08/12 14:25:54;;;;;;;5.13;3.58;;;;;;;;;;5032665;28;20021;-66
2022/08/12 14:28:22;;;;;;;4.43;3.65;;;;;;;;;;5025338;28;20041;-66
2022/08/12 14:30:52;;;;;;;7.30;4.13;;;;;;;;;;5023153;28;20629;-66
2022/08/12 14:33:30;;;;;;;3.95;3.42;;;;;;;;;;5029474;28;20053;-67
2022/08/12 14:35:57;;;;;;;5.18;3.97;;;;;;;;;;5032940;28;20478;-66
2022/08/12 14:38:24;;;;;;;9.52;3.72;;;;;;;;;;5031834;28;20029;-66
2022/08/12 14:41:00;;;;;;;4.35;3.80;;;;;;;;;;5042587;28;20032;-66
2022/08/12 14:43:28;;;;;;;8.65;3.88;;;;;;;;;;5037707;28;20083;-66
2022/08/12 14:45:57;;;;;;;5.28;3.85;;;;;;;;;;5027732;28;20043;-66
2022/08/12 14:48:22;;;;;;;5.40;3.97;;;;;;;;;;5031622;28;20422;-66
2022/08/12 14:50:49;;;;;;;6.25;4.15;;;;;;;;;;5032529;28;20045;-66
2022/08/12 14:53:18;;;;;;;12.90;4.13;;;;;;;;;;5032975;28;20031;-66
2022/08/12 14:55:48;;;;;;;8.68;3.88;;;;;;;;;;5033399;28;20076;-66
2022/08/12 14:58:17;;;;;;;6.13;3.83;;;;;;;;;;5040375;28;20570;-66
2022/08/12 15:03:29;;;;;;;6.45;3.90;;;;;;;;;;5020049;28;20628;-66
2022/08/12 15:05:57;;;;;;;6.90;3.60;;;;;;;;;;5012722;28;20064;-66
2022/08/12 15:08:34;;;;;;;6.50;4.38;;;;;;;;;;5018708;28;20037;-66
2022/08/12 15:11:03;;;;;;;4.35;3.92;;;;;;;;;;5029425;28;20076;-66
2022/08/12 15:13:31;;;;;;;5.40;4.03;;;;;;;;;;5036598;28;20045;-66
2022/08/12 15:15:59;;;;;;;5.30;3.97;;;;;;;;;;5030236;28;20134;-66
2022/08/12 15:18:25;;;;;;;6.22;4.32;;;;;;;;;;5032804;28;20077;-66
2022/08/12 15:20:52;;;;;;;5.80;3.88;;;;;;;;;;5028137;28;20064;-66
2022/08/12 15:23:21;;;;;;;4.72;3.60;;;;;;;;;;5025342;28;20040;-66
2022/08/12 15:25:52;;;;;;;4.47;3.70;;;;;;;;;;5028913;28;20047;-66
2022/08/12 15:28:22;;;;;;;6.65;4.03;;;;;;;;;;5030031;28;20037;-66
2022/08/12 15:30:51;;;;;;;7.82;4.10;;;;;;;;;;5047591;28;20119;-66
2022/08/12 15:33:16;;;;;;;6.75;3.85;;;;;;;;;;5048656;28;20048;-66
2022/08/12 15:35:42;;;;;;;4.30;3.83;;;;;;;;;;5048347;28;20037;-66
2022/08/12 15:38:10;;;;;;;4.60;3.72;;;;;;;;;;5030205;28;20033;-66
2022/08/12 15:40:37;;;;;;;5.53;3.85;;;;;;;;;;5011024;28;20034;-66
2022/08/12 15:43:04;;;;;;;6.22;3.60;;;;;;;;;;5023296;28;20566;-66
2022/08/12 15:45:31;;;;;;;5.90;3.60;;;;;;;;;;5015283;28;20041;-66
2022/08/12 15:47:57;;;;;;;4.80;3.63;;;;;;;;;;5021827;28;20049;-66
2022/08/12 15:50:25;;;;;;;4.53;3.80;;;;;;;;;;5020348;28;20041;-66
2022/08/12 15:52:52;;;;;;;4.20;3.80;;;;;;;;;;5021487;28;20056;-66
2022/08/12 15:55:18;;;;;;;7.82;4.00;;;;;;;;;;5023253;28;20099;-66
2022/08/12 15:57:56;;;;;;;6.28;4.10;;;;;;;;;;5025403;28;20633;-66
2022/08/12 16:00:26;;;;;;;7.07;3.42;;;;;;;;;;5019569;28;20059;-66
2022/08/12 16:02:52;;;;;;;4.00;3.60;;;;;;;;;;5026701;28;20123;-66
2022/08/12 16:05:20;;;;;;;6.65;4.00;;;;;;;;;;5027822;28;20021;-66
2022/08/12 16:07:49;;;;;;;8.18;4.10;;;;;;;;;;5024295;28;20083;-66
2022/08/12 16:10:17;;;;;;;6.32;3.60;;;;;;;;;;5020389;28;20037;-66
2022/08/12 16:12:49;;;;;;;4.80;3.50;;;;;;;;;;5021962;28;20036;-66
2022/08/12 16:15:17;;;;;;;7.22;3.67;;;;;;;;;;5019103;28;20483;-66
2022/08/12 16:17:45;;;;;;;5.07;3.65;;;;;;;;;;5022521;28;20042;-66
2022/08/12 16:20:21;;;;;;;4.75;3.35;;;;;;;;;;5027447;28;20039;-67
2022/08/12 16:22:57;;;;;;;6.55;3.80;;;;;;;;;;5025309;28;20029;-66
2022/08/12 16:25:22;;;;;;;4.30;3.80;;;;;;;;;;5026813;28;20037;-65
2022/08/12 16:27:52;;;;;;;8.25;3.65;;;;;;;;;;5024303;28;20040;-67
2022/08/12 16:30:22;;;;;;;5.90;3.50;;;;;;;;;;5013813;28;20044;-66
2022/08/12 16:32:48;;;;;;;4.13;3.53;;;;;;;;;;5026954;28;20510;-66
2022/08/12 16:35:15;;;;;;;5.80;3.50;;;;;;;;;;5017082;28;20021;-65
2022/08/12 16:37:41;;;;;;;4.38;3.13;;;;;;;;;;5012745;28;20022;-66